TAP944 LPPT-LSGG
Flight info
| Callsign | TAP944 |
|---|---|
| Flight time | 1h 51m |
| Altitude | 38000 |
| Route | IXIDA DCT TOSDI N745 ZMR N976 DGO T429 TOPTU DCT TOU DCT GAI/N0389F300 DCT MEN DCT NINUN DCT LATAM DCT ETREK DCT LUXAN G53 LTP Z16 BELUS |
| Aircraft | A20N/M-SDE2E3FGHIRWXY/LB1 |
Departure
| Time | 2026-05-03 21:13 |
|---|---|
| Airport | Lisbon Humberto Delgado Airport (LPPT) |
Arrival
| Time | 2026-05-03 23:04 |
|---|---|
| Airport | Geneva International Airport (LSGG) |
| Time | Latitude | Longitude | Altitude | Speed | Heading |
|---|---|---|---|---|---|
| 2026-05-03 20:49 | 38.77161 | -9.13124 | 332 ft | 0 kts | 79° |
| 2026-05-03 21:00 | 38.77161 | -9.13125 | 337 ft | 0 kts | 79° |
| 2026-05-03 21:04 | 38.77160 | -9.13130 | 332 ft | 3 kts | 78° |
| 2026-05-03 21:04 | 38.77153 | -9.13164 | 333 ft | 4 kts | 69° |
| 2026-05-03 21:04 | 38.77141 | -9.13194 | 334 ft | 4 kts | 43° |
| 2026-05-03 21:04 | 38.77123 | -9.13205 | 334 ft | 1 kts | 348° |
| 2026-05-03 21:07 | 38.77131 | -9.13207 | 333 ft | 4 kts | 348° |
| 2026-05-03 21:08 | 38.77182 | -9.13221 | 341 ft | 11 kts | 347° |
| 2026-05-03 21:08 | 38.77269 | -9.13243 | 338 ft | 15 kts | 346° |
| 2026-05-03 21:08 | 38.77321 | -9.13328 | 340 ft | 13 kts | 257° |
| 2026-05-03 21:08 | 38.77303 | -9.13452 | 349 ft | 15 kts | 259° |
| 2026-05-03 21:09 | 38.77281 | -9.13591 | 349 ft | 18 kts | 257° |
| 2026-05-03 21:09 | 38.77252 | -9.13759 | 353 ft | 14 kts | 258° |
| 2026-05-03 21:09 | 38.77216 | -9.13855 | 356 ft | 14 kts | 215° |
| 2026-05-03 21:09 | 38.77106 | -9.13912 | 355 ft | 21 kts | 202° |
| 2026-05-03 21:10 | 38.76961 | -9.13987 | 351 ft | 22 kts | 205° |
| 2026-05-03 21:10 | 38.76841 | -9.14055 | 350 ft | 22 kts | 203° |
| 2026-05-03 21:10 | 38.76693 | -9.14133 | 351 ft | 23 kts | 203° |
| 2026-05-03 21:10 | 38.76598 | -9.14194 | 337 ft | 12 kts | 232° |
| 2026-05-03 21:11 | 38.76617 | -9.14310 | 334 ft | 17 kts | 295° |
| 2026-05-03 21:11 | 38.76685 | -9.14367 | 335 ft | 12 kts | 13° |
| 2026-05-03 21:11 | 38.76702 | -9.14358 | 333 ft | 0 kts | 22° |
| 2026-05-03 21:12 | 38.76848 | -9.14280 | 350 ft | 66 kts | 22° |
| 2026-05-03 21:12 | 38.77540 | -9.13909 | 367 ft | 145 kts | 22° |
| 2026-05-03 21:12 | 38.78552 | -9.13339 | 903 ft | 166 kts | 24° |
| 2026-05-03 21:13 | 38.79702 | -9.12644 | 1524 ft | 197 kts | 25° |
| 2026-05-03 21:13 | 38.81000 | -9.11824 | 2378 ft | 217 kts | 27° |
| 2026-05-03 21:13 | 38.82344 | -9.10824 | 3198 ft | 237 kts | 30° |
| 2026-05-03 21:13 | 38.83797 | -9.09687 | 4023 ft | 258 kts | 29° |
| 2026-05-03 21:14 | 38.85344 | -9.08505 | 5224 ft | 268 kts | 29° |
| 2026-05-03 21:14 | 38.86866 | -9.07367 | 6377 ft | 277 kts | 28° |
| 2026-05-03 21:14 | 38.88561 | -9.06114 | 7618 ft | 285 kts | 28° |
| 2026-05-03 21:14 | 38.90207 | -9.04645 | 8916 ft | 293 kts | 39° |
| 2026-05-03 21:15 | 38.91748 | -9.02862 | 10148 ft | 302 kts | 41° |
| 2026-05-03 21:15 | 38.93354 | -9.00995 | 10990 ft | 324 kts | 40° |
| 2026-05-03 21:15 | 38.95107 | -8.98983 | 11580 ft | 350 kts | 40° |
| 2026-05-03 21:15 | 38.96937 | -8.96879 | 12398 ft | 364 kts | 40° |
| 2026-05-03 21:16 | 38.98837 | -8.94679 | 13499 ft | 371 kts | 40° |
| 2026-05-03 21:16 | 39.00773 | -8.92428 | 14478 ft | 379 kts | 40° |
| 2026-05-03 21:16 | 39.02744 | -8.90136 | 15485 ft | 386 kts | 40° |
| 2026-05-03 21:16 | 39.04762 | -8.87798 | 16394 ft | 394 kts | 38° |
| 2026-05-03 21:17 | 39.06840 | -8.85449 | 17319 ft | 401 kts | 38° |
| 2026-05-03 21:17 | 39.08236 | -8.83865 | 17928 ft | 406 kts | 38° |
| 2026-05-03 21:17 | 39.11055 | -8.80616 | 19037 ft | 416 kts | 39° |
| 2026-05-03 21:17 | 39.13208 | -8.78092 | 19885 ft | 421 kts | 39° |
| 2026-05-03 21:18 | 39.15383 | -8.75526 | 20699 ft | 427 kts | 39° |
| 2026-05-03 21:18 | 39.17514 | -8.72821 | 21500 ft | 435 kts | 45° |
| 2026-05-03 21:18 | 39.19519 | -8.69850 | 22311 ft | 440 kts | 46° |
| 2026-05-03 21:18 | 39.21562 | -8.66866 | 23084 ft | 446 kts | 43° |
| 2026-05-03 21:19 | 39.23771 | -8.64009 | 23816 ft | 452 kts | 41° |
| 2026-05-03 21:19 | 39.26019 | -8.61143 | 24462 ft | 457 kts | 41° |
| 2026-05-03 21:19 | 39.28293 | -8.58233 | 25125 ft | 463 kts | 41° |
| 2026-05-03 21:19 | 39.30583 | -8.55287 | 25739 ft | 468 kts | 42° |
| 2026-05-03 21:20 | 39.32897 | -8.52296 | 26338 ft | 474 kts | 42° |
| 2026-05-03 21:20 | 39.35106 | -8.49431 | 26893 ft | 479 kts | 42° |
| 2026-05-03 21:20 | 39.37468 | -8.46360 | 27469 ft | 484 kts | 42° |
| 2026-05-03 21:20 | 39.39811 | -8.43313 | 28021 ft | 489 kts | 42° |
| 2026-05-03 21:21 | 39.42267 | -8.40118 | 28574 ft | 494 kts | 42° |
| 2026-05-03 21:21 | 39.44700 | -8.36949 | 29109 ft | 499 kts | 42° |
| 2026-05-03 21:21 | 39.47159 | -8.33744 | 29595 ft | 504 kts | 42° |
| 2026-05-03 21:21 | 39.49608 | -8.30549 | 30048 ft | 509 kts | 42° |
| 2026-05-03 21:22 | 39.52117 | -8.27272 | 30539 ft | 513 kts | 42° |
| 2026-05-03 21:22 | 39.54638 | -8.23975 | 31015 ft | 516 kts | 43° |
| 2026-05-03 21:22 | 39.57176 | -8.20651 | 31490 ft | 519 kts | 43° |
| 2026-05-03 21:22 | 39.59721 | -8.17315 | 32033 ft | 520 kts | 43° |
| 2026-05-03 21:23 | 39.62270 | -8.13969 | 32598 ft | 521 kts | 43° |
| 2026-05-03 21:23 | 39.64812 | -8.10626 | 33149 ft | 522 kts | 43° |
| 2026-05-03 21:23 | 39.67368 | -8.07264 | 33697 ft | 522 kts | 43° |
| 2026-05-03 21:23 | 39.69916 | -8.03909 | 34000 ft | 521 kts | 43° |
| 2026-05-03 21:24 | 39.74991 | -7.97220 | 34048 ft | 520 kts | 43° |
| 2026-05-03 21:24 | 39.80072 | -7.90513 | 34391 ft | 521 kts | 43° |
| 2026-05-03 21:25 | 39.82610 | -7.87154 | 34956 ft | 519 kts | 43° |
| 2026-05-03 21:25 | 39.85131 | -7.83816 | 35498 ft | 516 kts | 43° |
| 2026-05-03 21:25 | 39.87642 | -7.80485 | 36007 ft | 514 kts | 43° |
| 2026-05-03 21:25 | 39.90143 | -7.77167 | 36490 ft | 513 kts | 43° |
| 2026-05-03 21:26 | 39.92606 | -7.73893 | 36980 ft | 511 kts | 43° |
| 2026-05-03 21:26 | 39.95084 | -7.70597 | 37450 ft | 509 kts | 43° |
| 2026-05-03 21:26 | 39.97558 | -7.67301 | 37885 ft | 508 kts | 43° |
| 2026-05-03 21:26 | 40.00027 | -7.64009 | 38032 ft | 506 kts | 43° |
| 2026-05-03 21:27 | 40.04929 | -7.57463 | 38037 ft | 502 kts | 43° |
| 2026-05-03 21:27 | 40.09820 | -7.50920 | 38037 ft | 504 kts | 43° |
| 2026-05-03 21:28 | 40.14708 | -7.44364 | 38032 ft | 504 kts | 43° |
| 2026-05-03 21:28 | 40.19587 | -7.37806 | 38034 ft | 504 kts | 43° |
| 2026-05-03 21:29 | 40.24432 | -7.31280 | 38049 ft | 504 kts | 43° |
| 2026-05-03 21:29 | 40.29321 | -7.24682 | 38041 ft | 504 kts | 43° |
| 2026-05-03 21:30 | 40.34198 | -7.18084 | 38038 ft | 503 kts | 44° |
| 2026-05-03 21:30 | 40.39038 | -7.11521 | 38031 ft | 503 kts | 44° |
| 2026-05-03 21:31 | 40.43898 | -7.04917 | 38031 ft | 503 kts | 44° |
| 2026-05-03 21:31 | 40.48757 | -6.98299 | 38029 ft | 503 kts | 44° |
| 2026-05-03 21:32 | 40.53609 | -6.91676 | 38029 ft | 503 kts | 44° |
| 2026-05-03 21:32 | 40.58436 | -6.85073 | 38027 ft | 503 kts | 44° |
| 2026-05-03 21:33 | 40.63264 | -6.78454 | 38023 ft | 502 kts | 44° |
| 2026-05-03 21:33 | 40.68108 | -6.71798 | 38022 ft | 503 kts | 44° |
| 2026-05-03 21:34 | 40.72917 | -6.65174 | 38030 ft | 503 kts | 44° |
| 2026-05-03 21:34 | 40.77698 | -6.58577 | 38026 ft | 503 kts | 44° |
| 2026-05-03 21:35 | 40.82534 | -6.51887 | 38022 ft | 503 kts | 44° |
| 2026-05-03 21:35 | 40.87362 | -6.45194 | 38017 ft | 503 kts | 44° |
| 2026-05-03 21:36 | 40.92188 | -6.38486 | 38015 ft | 503 kts | 44° |
| 2026-05-03 21:36 | 40.97004 | -6.31784 | 38029 ft | 503 kts | 44° |
| 2026-05-03 21:37 | 40.99246 | -6.28216 | 38028 ft | 505 kts | 55° |
| 2026-05-03 21:37 | 41.00969 | -6.24153 | 38019 ft | 505 kts | 64° |
| 2026-05-03 21:37 | 41.03927 | -6.15790 | 38019 ft | 505 kts | 65° |
| 2026-05-03 21:38 | 41.06907 | -6.07369 | 38002 ft | 504 kts | 65° |
| 2026-05-03 21:38 | 41.09914 | -5.98950 | 38017 ft | 504 kts | 65° |
| 2026-05-03 21:39 | 41.12915 | -5.90537 | 38005 ft | 505 kts | 65° |
| 2026-05-03 21:39 | 41.15907 | -5.82117 | 38007 ft | 505 kts | 65° |
| 2026-05-03 21:40 | 41.18894 | -5.73679 | 38008 ft | 505 kts | 65° |
| 2026-05-03 21:40 | 41.21874 | -5.65236 | 38013 ft | 505 kts | 65° |
| 2026-05-03 21:41 | 41.24765 | -5.57023 | 38017 ft | 505 kts | 65° |
| 2026-05-03 21:41 | 41.27737 | -5.48553 | 38012 ft | 504 kts | 65° |
| 2026-05-03 21:42 | 41.30700 | -5.40082 | 38002 ft | 504 kts | 65° |
| 2026-05-03 21:42 | 41.33652 | -5.31620 | 37984 ft | 503 kts | 65° |
| 2026-05-03 21:43 | 41.36575 | -5.23213 | 37993 ft | 503 kts | 65° |
| 2026-05-03 21:43 | 41.39508 | -5.14756 | 37991 ft | 503 kts | 65° |
| 2026-05-03 21:44 | 41.42425 | -5.06316 | 37986 ft | 503 kts | 65° |
| 2026-05-03 21:44 | 41.45347 | -4.97837 | 37982 ft | 502 kts | 66° |
| 2026-05-03 21:45 | 41.48261 | -4.89359 | 37987 ft | 502 kts | 66° |
| 2026-05-03 21:45 | 41.51146 | -4.80936 | 37989 ft | 502 kts | 66° |
| 2026-05-03 21:46 | 41.54041 | -4.72458 | 37990 ft | 502 kts | 66° |
| 2026-05-03 21:46 | 41.56878 | -4.64126 | 37980 ft | 502 kts | 66° |
| 2026-05-03 21:47 | 41.59764 | -4.55625 | 37963 ft | 501 kts | 66° |
| 2026-05-03 21:47 | 41.62634 | -4.47144 | 37976 ft | 501 kts | 66° |
| 2026-05-03 21:48 | 41.65501 | -4.38646 | 37974 ft | 501 kts | 66° |
| 2026-05-03 21:48 | 41.68366 | -4.30127 | 37972 ft | 501 kts | 66° |
| 2026-05-03 21:49 | 41.71222 | -4.21611 | 37983 ft | 501 kts | 66° |
| 2026-05-03 21:49 | 41.74070 | -4.13090 | 37981 ft | 501 kts | 66° |
| 2026-05-03 21:50 | 41.76893 | -4.04617 | 37978 ft | 501 kts | 66° |
| 2026-05-03 21:50 | 41.79726 | -3.96091 | 37975 ft | 500 kts | 67° |
| 2026-05-03 21:51 | 41.82076 | -3.88996 | 37976 ft | 500 kts | 67° |
| 2026-05-03 21:51 | 41.84814 | -3.80707 | 37946 ft | 500 kts | 67° |
| 2026-05-03 21:52 | 41.88089 | -3.72427 | 37972 ft | 499 kts | 59° |
| 2026-05-03 21:52 | 41.91689 | -3.64471 | 37975 ft | 499 kts | 59° |
| 2026-05-03 21:53 | 41.95277 | -3.56535 | 37983 ft | 499 kts | 59° |
| 2026-05-03 21:53 | 41.98873 | -3.48558 | 37980 ft | 498 kts | 59° |
| 2026-05-03 21:54 | 42.02436 | -3.40636 | 37969 ft | 497 kts | 59° |
| 2026-05-03 21:54 | 42.05989 | -3.32713 | 37979 ft | 496 kts | 59° |
| 2026-05-03 21:55 | 42.09464 | -3.24933 | 37975 ft | 496 kts | 59° |
| 2026-05-03 21:55 | 42.13013 | -3.16960 | 37974 ft | 496 kts | 59° |
| 2026-05-03 21:56 | 42.16559 | -3.08973 | 37981 ft | 496 kts | 59° |
| 2026-05-03 21:56 | 42.20090 | -3.00997 | 37958 ft | 494 kts | 59° |
| 2026-05-03 21:57 | 42.23606 | -2.93034 | 37951 ft | 493 kts | 60° |
| 2026-05-03 21:57 | 42.27094 | -2.85114 | 37963 ft | 497 kts | 60° |
| 2026-05-03 21:58 | 42.30613 | -2.77099 | 37963 ft | 494 kts | 60° |
| 2026-05-03 21:58 | 42.34129 | -2.69073 | 37958 ft | 496 kts | 60° |
| 2026-05-03 21:59 | 42.37633 | -2.61049 | 37969 ft | 496 kts | 60° |
| 2026-05-03 21:59 | 42.41142 | -2.52997 | 37964 ft | 496 kts | 60° |
| 2026-05-03 22:00 | 42.44644 | -2.44935 | 37969 ft | 497 kts | 60° |
| 2026-05-03 22:00 | 42.48145 | -2.36855 | 37971 ft | 497 kts | 60° |
| 2026-05-03 22:01 | 42.51634 | -2.28777 | 37957 ft | 497 kts | 60° |
| 2026-05-03 22:01 | 42.55104 | -2.20724 | 37972 ft | 498 kts | 60° |
| 2026-05-03 22:02 | 42.58538 | -2.12733 | 37971 ft | 498 kts | 60° |
| 2026-05-03 22:02 | 42.61998 | -2.04659 | 37976 ft | 499 kts | 60° |
| 2026-05-03 22:03 | 42.65495 | -1.96476 | 37980 ft | 499 kts | 60° |
| 2026-05-03 22:03 | 42.68941 | -1.88390 | 37978 ft | 498 kts | 60° |
| 2026-05-03 22:04 | 42.72400 | -1.80251 | 37998 ft | 498 kts | 60° |
| 2026-05-03 22:04 | 42.75857 | -1.72095 | 38002 ft | 497 kts | 60° |
| 2026-05-03 22:05 | 42.79307 | -1.63933 | 37997 ft | 497 kts | 60° |
| 2026-05-03 22:05 | 42.82870 | -1.55717 | 37996 ft | 515 kts | 57° |
| 2026-05-03 22:06 | 42.86921 | -1.47599 | 37961 ft | 520 kts | 55° |
| 2026-05-03 22:06 | 42.91047 | -1.39488 | 37984 ft | 519 kts | 55° |
| 2026-05-03 22:07 | 42.95137 | -1.31375 | 37987 ft | 519 kts | 55° |
| 2026-05-03 22:07 | 42.99212 | -1.23242 | 37975 ft | 519 kts | 56° |
| 2026-05-03 22:08 | 43.03221 | -1.15214 | 37976 ft | 518 kts | 56° |
| 2026-05-03 22:08 | 43.07243 | -1.07132 | 37976 ft | 512 kts | 56° |
| 2026-05-03 22:09 | 43.11230 | -0.99092 | 37971 ft | 513 kts | 56° |
| 2026-05-03 22:10 | 43.17231 | -0.86945 | 37969 ft | 514 kts | 56° |
| 2026-05-03 22:10 | 43.21223 | -0.78839 | 37959 ft | 513 kts | 56° |
| 2026-05-03 22:11 | 43.25205 | -0.70731 | 37954 ft | 511 kts | 56° |
| 2026-05-03 22:11 | 43.29174 | -0.62625 | 37942 ft | 512 kts | 56° |
| 2026-05-03 22:12 | 43.33139 | -0.54507 | 37938 ft | 511 kts | 56° |
| 2026-05-03 22:12 | 43.37098 | -0.46377 | 37937 ft | 511 kts | 56° |
| 2026-05-03 22:13 | 43.41049 | -0.38242 | 37939 ft | 511 kts | 56° |
| 2026-05-03 22:13 | 43.44998 | -0.30090 | 37935 ft | 511 kts | 57° |
| 2026-05-03 22:14 | 43.48937 | -0.21935 | 37954 ft | 512 kts | 57° |
| 2026-05-03 22:14 | 43.52849 | -0.13813 | 37942 ft | 511 kts | 57° |
| 2026-05-03 22:15 | 43.56777 | -0.05635 | 37953 ft | 511 kts | 57° |
| 2026-05-03 22:15 | 43.60704 | 0.02563 | 37957 ft | 514 kts | 57° |
| 2026-05-03 22:16 | 43.64657 | 0.10839 | 37941 ft | 515 kts | 57° |
| 2026-05-03 22:16 | 43.68596 | 0.19107 | 37954 ft | 515 kts | 57° |
| 2026-05-03 22:17 | 43.72532 | 0.27395 | 37948 ft | 515 kts | 57° |
| 2026-05-03 22:17 | 43.76461 | 0.35688 | 37960 ft | 515 kts | 57° |
| 2026-05-03 22:18 | 43.80356 | 0.43940 | 37955 ft | 514 kts | 57° |
| 2026-05-03 22:18 | 43.84260 | 0.52233 | 37956 ft | 514 kts | 57° |
| 2026-05-03 22:19 | 43.88160 | 0.60538 | 37954 ft | 513 kts | 57° |
| 2026-05-03 22:19 | 43.92052 | 0.68850 | 37963 ft | 513 kts | 57° |
| 2026-05-03 22:20 | 43.95934 | 0.77163 | 37949 ft | 513 kts | 57° |
| 2026-05-03 22:20 | 43.99778 | 0.85421 | 37963 ft | 509 kts | 57° |
| 2026-05-03 22:21 | 44.03596 | 0.93644 | 37968 ft | 510 kts | 57° |
| 2026-05-03 22:21 | 44.07436 | 1.01937 | 37969 ft | 510 kts | 57° |
| 2026-05-03 22:22 | 44.11269 | 1.10240 | 37965 ft | 510 kts | 57° |
| 2026-05-03 22:22 | 44.15086 | 1.18529 | 37966 ft | 504 kts | 57° |
| 2026-05-03 22:23 | 44.18868 | 1.26770 | 37971 ft | 505 kts | 58° |
| 2026-05-03 22:23 | 44.22582 | 1.34887 | 37984 ft | 506 kts | 58° |
| 2026-05-03 22:24 | 44.26366 | 1.43177 | 37974 ft | 507 kts | 58° |
| 2026-05-03 22:24 | 44.30125 | 1.51436 | 37979 ft | 506 kts | 58° |
| 2026-05-03 22:25 | 44.33881 | 1.59709 | 37982 ft | 503 kts | 58° |
| 2026-05-03 22:25 | 44.37621 | 1.67972 | 37988 ft | 503 kts | 58° |
| 2026-05-03 22:26 | 44.41359 | 1.76257 | 38010 ft | 504 kts | 58° |
| 2026-05-03 22:26 | 44.45119 | 1.84612 | 37991 ft | 506 kts | 59° |
| 2026-05-03 22:27 | 44.48843 | 1.92912 | 37985 ft | 505 kts | 59° |
| 2026-05-03 22:27 | 44.52577 | 2.01262 | 38005 ft | 505 kts | 59° |
| 2026-05-03 22:28 | 44.56305 | 2.09620 | 38007 ft | 505 kts | 59° |
| 2026-05-03 22:28 | 44.60027 | 2.17989 | 38031 ft | 506 kts | 59° |
| 2026-05-03 22:29 | 44.63634 | 2.26121 | 38012 ft | 506 kts | 59° |
| 2026-05-03 22:29 | 44.67373 | 2.34580 | 38019 ft | 505 kts | 59° |
| 2026-05-03 22:30 | 44.71012 | 2.42835 | 38018 ft | 505 kts | 59° |
| 2026-05-03 22:30 | 44.74732 | 2.51297 | 38022 ft | 505 kts | 59° |
| 2026-05-03 22:31 | 44.78397 | 2.59659 | 38025 ft | 505 kts | 59° |
| 2026-05-03 22:31 | 44.82079 | 2.68086 | 38003 ft | 505 kts | 59° |
| 2026-05-03 22:32 | 44.85753 | 2.76520 | 38030 ft | 505 kts | 59° |
| 2026-05-03 22:32 | 44.89419 | 2.84959 | 38037 ft | 504 kts | 59° |
| 2026-05-03 22:33 | 44.93081 | 2.93414 | 38042 ft | 504 kts | 59° |
| 2026-05-03 22:33 | 44.96712 | 3.01823 | 38043 ft | 504 kts | 59° |
| 2026-05-03 22:34 | 45.00352 | 3.10277 | 38044 ft | 503 kts | 59° |
| 2026-05-03 22:34 | 45.03985 | 3.18741 | 38045 ft | 503 kts | 59° |
| 2026-05-03 22:35 | 45.07611 | 3.27212 | 38045 ft | 503 kts | 59° |
| 2026-05-03 22:35 | 45.11195 | 3.35615 | 38045 ft | 502 kts | 59° |
| 2026-05-03 22:36 | 45.14803 | 3.44096 | 38051 ft | 503 kts | 60° |
| 2026-05-03 22:36 | 45.18405 | 3.52588 | 38042 ft | 503 kts | 60° |
| 2026-05-03 22:37 | 45.21919 | 3.60899 | 38044 ft | 503 kts | 60° |
| 2026-05-03 22:37 | 45.24904 | 3.67977 | 38042 ft | 503 kts | 60° |
| 2026-05-03 22:38 | 45.28491 | 3.76506 | 38048 ft | 503 kts | 60° |
| 2026-05-03 22:38 | 45.32103 | 3.85005 | 38056 ft | 503 kts | 58° |
| 2026-05-03 22:39 | 45.35866 | 3.93375 | 38048 ft | 503 kts | 58° |
| 2026-05-03 22:39 | 45.39552 | 4.01598 | 38044 ft | 503 kts | 58° |
| 2026-05-03 22:40 | 45.43289 | 4.10024 | 38047 ft | 503 kts | 58° |
| 2026-05-03 22:40 | 45.47011 | 4.18458 | 38048 ft | 503 kts | 58° |
| 2026-05-03 22:41 | 45.50705 | 4.26853 | 37640 ft | 493 kts | 59° |
| 2026-05-03 22:41 | 45.52528 | 4.31004 | 36682 ft | 495 kts | 59° |
| 2026-05-03 22:41 | 45.54339 | 4.35136 | 35697 ft | 499 kts | 59° |
| 2026-05-03 22:41 | 45.56179 | 4.39339 | 34810 ft | 499 kts | 59° |
| 2026-05-03 22:42 | 45.58018 | 4.43546 | 33897 ft | 499 kts | 59° |
| 2026-05-03 22:42 | 45.59861 | 4.47767 | 32868 ft | 501 kts | 59° |
| 2026-05-03 22:42 | 45.61692 | 4.51969 | 31944 ft | 498 kts | 60° |
| 2026-05-03 22:42 | 45.63524 | 4.56179 | 31004 ft | 498 kts | 60° |
| 2026-05-03 22:43 | 45.65338 | 4.60352 | 30348 ft | 490 kts | 60° |
| 2026-05-03 22:43 | 45.67118 | 4.64453 | 29520 ft | 485 kts | 60° |
| 2026-05-03 22:43 | 45.68754 | 4.68230 | 28904 ft | 477 kts | 60° |
| 2026-05-03 22:43 | 45.70489 | 4.72240 | 28187 ft | 470 kts | 60° |
| 2026-05-03 22:44 | 45.72176 | 4.76145 | 27490 ft | 463 kts | 60° |
| 2026-05-03 22:44 | 45.73858 | 4.80044 | 26800 ft | 457 kts | 60° |
| 2026-05-03 22:44 | 45.75513 | 4.83887 | 26102 ft | 452 kts | 60° |
| 2026-05-03 22:44 | 45.77133 | 4.87653 | 25408 ft | 447 kts | 60° |
| 2026-05-03 22:45 | 45.78757 | 4.91432 | 24700 ft | 443 kts | 60° |
| 2026-05-03 22:45 | 45.80366 | 4.95184 | 24021 ft | 439 kts | 60° |
| 2026-05-03 22:45 | 45.81965 | 4.98916 | 23274 ft | 436 kts | 60° |
| 2026-05-03 22:45 | 45.83532 | 5.02577 | 22585 ft | 429 kts | 60° |
| 2026-05-03 22:46 | 45.85089 | 5.06219 | 21900 ft | 424 kts | 61° |
| 2026-05-03 22:46 | 45.86620 | 5.09804 | 21226 ft | 419 kts | 61° |
| 2026-05-03 22:46 | 45.88128 | 5.13340 | 20538 ft | 414 kts | 61° |
| 2026-05-03 22:46 | 45.89620 | 5.16848 | 19879 ft | 409 kts | 61° |
| 2026-05-03 22:47 | 45.91088 | 5.20304 | 19196 ft | 405 kts | 61° |
| 2026-05-03 22:47 | 45.92533 | 5.23705 | 18522 ft | 401 kts | 61° |
| 2026-05-03 22:47 | 45.93975 | 5.27104 | 17867 ft | 395 kts | 61° |
| 2026-05-03 22:47 | 45.95380 | 5.30418 | 17560 ft | 380 kts | 61° |
| 2026-05-03 22:48 | 45.96717 | 5.33573 | 17387 ft | 363 kts | 61° |
| 2026-05-03 22:48 | 45.98004 | 5.36616 | 17233 ft | 348 kts | 61° |
| 2026-05-03 22:48 | 45.99233 | 5.39525 | 17102 ft | 333 kts | 61° |
| 2026-05-03 22:48 | 46.00411 | 5.42317 | 16975 ft | 320 kts | 61° |
| 2026-05-03 22:49 | 46.01539 | 5.44995 | 16874 ft | 307 kts | 61° |
| 2026-05-03 22:49 | 46.02624 | 5.47576 | 16768 ft | 294 kts | 62° |
| 2026-05-03 22:49 | 46.03664 | 5.50049 | 16669 ft | 283 kts | 62° |
| 2026-05-03 22:49 | 46.04660 | 5.52420 | 16567 ft | 271 kts | 62° |
| 2026-05-03 22:50 | 46.05614 | 5.54694 | 16473 ft | 260 kts | 62° |
| 2026-05-03 22:50 | 46.06517 | 5.56847 | 16393 ft | 249 kts | 62° |
| 2026-05-03 22:50 | 46.07394 | 5.58946 | 16206 ft | 243 kts | 62° |
| 2026-05-03 22:50 | 46.08263 | 5.61026 | 15916 ft | 242 kts | 62° |
| 2026-05-03 22:51 | 46.09129 | 5.63098 | 15636 ft | 241 kts | 62° |
| 2026-05-03 22:51 | 46.09992 | 5.65165 | 15361 ft | 240 kts | 62° |
| 2026-05-03 22:51 | 46.10852 | 5.67222 | 15081 ft | 239 kts | 62° |
| 2026-05-03 22:51 | 46.11708 | 5.69273 | 14810 ft | 238 kts | 62° |
| 2026-05-03 22:52 | 46.12540 | 5.71267 | 14558 ft | 237 kts | 62° |
| 2026-05-03 22:52 | 46.13385 | 5.73292 | 14302 ft | 236 kts | 62° |
| 2026-05-03 22:52 | 46.14236 | 5.75333 | 14030 ft | 236 kts | 62° |
| 2026-05-03 22:52 | 46.15074 | 5.77343 | 13771 ft | 234 kts | 62° |
| 2026-05-03 22:53 | 46.15908 | 5.79349 | 13452 ft | 233 kts | 62° |
| 2026-05-03 22:53 | 46.16743 | 5.81357 | 13168 ft | 233 kts | 62° |
| 2026-05-03 22:53 | 46.17564 | 5.83332 | 12921 ft | 231 kts | 62° |
| 2026-05-03 22:53 | 46.18388 | 5.85314 | 12673 ft | 230 kts | 62° |
| 2026-05-03 22:54 | 46.19212 | 5.87293 | 12343 ft | 230 kts | 62° |
| 2026-05-03 22:54 | 46.20039 | 5.89252 | 12047 ft | 230 kts | 57° |
| 2026-05-03 22:54 | 46.20892 | 5.90543 | 11858 ft | 230 kts | 43° |
| 2026-05-03 22:54 | 46.22093 | 5.92115 | 11613 ft | 230 kts | 44° |
| 2026-05-03 22:55 | 46.23222 | 5.93708 | 11356 ft | 228 kts | 56° |
| 2026-05-03 22:55 | 46.24125 | 5.95582 | 11119 ft | 227 kts | 59° |
| 2026-05-03 22:55 | 46.24995 | 5.97468 | 10872 ft | 226 kts | 59° |
| 2026-05-03 22:55 | 46.25871 | 5.99378 | 10546 ft | 230 kts | 59° |
| 2026-05-03 22:56 | 46.26768 | 6.01327 | 10180 ft | 235 kts | 59° |
| 2026-05-03 22:56 | 46.27688 | 6.03313 | 9818 ft | 240 kts | 58° |
| 2026-05-03 22:56 | 46.28621 | 6.05319 | 9432 ft | 244 kts | 58° |
| 2026-05-03 22:56 | 46.29591 | 6.07359 | 9036 ft | 248 kts | 55° |
| 2026-05-03 22:57 | 46.30710 | 6.09295 | 8652 ft | 252 kts | 51° |
| 2026-05-03 22:57 | 46.31869 | 6.11218 | 8273 ft | 255 kts | 51° |
| 2026-05-03 22:57 | 46.33029 | 6.13144 | 7899 ft | 256 kts | 51° |
| 2026-05-03 22:57 | 46.34205 | 6.15094 | 7521 ft | 258 kts | 51° |
| 2026-05-03 22:58 | 46.35387 | 6.17054 | 7163 ft | 258 kts | 51° |
| 2026-05-03 22:58 | 46.36557 | 6.18990 | 6798 ft | 254 kts | 51° |
| 2026-05-03 22:58 | 46.37596 | 6.20996 | 6424 ft | 247 kts | 68° |
| 2026-05-03 22:58 | 46.38110 | 6.23296 | 6052 ft | 239 kts | 88° |
| 2026-05-03 22:59 | 46.37879 | 6.25590 | 5686 ft | 230 kts | 112° |
| 2026-05-03 22:59 | 46.37044 | 6.27466 | 5305 ft | 220 kts | 147° |
| 2026-05-03 22:59 | 46.35634 | 6.28082 | 4872 ft | 215 kts | 187° |
| 2026-05-03 22:59 | 46.34402 | 6.27232 | 4437 ft | 190 kts | 225° |
| 2026-05-03 23:00 | 46.33644 | 6.25788 | 4020 ft | 173 kts | 233° |
| 2026-05-03 23:00 | 46.32946 | 6.24480 | 3687 ft | 161 kts | 229° |
| 2026-05-03 23:00 | 46.32236 | 6.23322 | 3446 ft | 148 kts | 226° |
| 2026-05-03 23:00 | 46.31592 | 6.22347 | 3247 ft | 138 kts | 225° |
| 2026-05-03 23:01 | 46.30943 | 6.21390 | 3071 ft | 132 kts | 225° |
| 2026-05-03 23:01 | 46.30288 | 6.20426 | 2885 ft | 133 kts | 225° |
| 2026-05-03 23:01 | 46.29653 | 6.19493 | 2711 ft | 125 kts | 225° |
| 2026-05-03 23:01 | 46.29049 | 6.18605 | 2537 ft | 126 kts | 225° |
| 2026-05-03 23:02 | 46.28437 | 6.17703 | 2360 ft | 126 kts | 226° |
| 2026-05-03 23:02 | 46.27822 | 6.16799 | 2187 ft | 126 kts | 226° |
| 2026-05-03 23:02 | 46.27208 | 6.15899 | 2044 ft | 126 kts | 226° |
| 2026-05-03 23:02 | 46.26587 | 6.15003 | 1879 ft | 125 kts | 227° |
| 2026-05-03 23:03 | 46.25978 | 6.14101 | 1716 ft | 125 kts | 226° |
| 2026-05-03 23:03 | 46.25371 | 6.13206 | 1550 ft | 125 kts | 226° |
| 2026-05-03 23:03 | 46.24772 | 6.12317 | 1407 ft | 123 kts | 226° |
| 2026-05-03 23:03 | 46.24256 | 6.11548 | 1386 ft | 80 kts | 226° |
| 2026-05-03 23:04 | 46.23992 | 6.11172 | 1396 ft | 40 kts | 225° |
| 2026-05-03 23:04 | 46.23832 | 6.11069 | 1390 ft | 22 kts | 174° |
| 2026-05-03 23:04 | 46.23770 | 6.11079 | 1387 ft | 11 kts | 173° |
| 2026-05-03 23:04 | 46.23703 | 6.11078 | 1390 ft | 11 kts | 205° |
| 2026-05-03 23:05 | 46.23633 | 6.10972 | 1384 ft | 18 kts | 225° |
| 2026-05-03 23:05 | 46.23560 | 6.10870 | 1389 ft | 14 kts | 223° |
| 2026-05-03 23:05 | 46.23504 | 6.10787 | 1388 ft | 12 kts | 227° |
| 2026-05-03 23:05 | 46.23430 | 6.10701 | 1389 ft | 11 kts | 173° |
| 2026-05-03 23:06 | 46.23361 | 6.10783 | 1388 ft | 11 kts | 135° |
| 2026-05-03 23:06 | 46.23286 | 6.10788 | 1389 ft | 11 kts | 190° |
| 2026-05-03 23:06 | 46.23220 | 6.10732 | 1390 ft | 5 kts | 227° |
| 2026-05-03 23:06 | 46.23195 | 6.10702 | 1386 ft | 2 kts | 208° |
| 2026-05-03 23:07 | 46.23185 | 6.10703 | 1388 ft | 2 kts | 181° |
| 2026-05-03 23:07 | 46.23176 | 6.10709 | 1387 ft | 0 kts | 136° |
| 2026-05-03 23:07 | 46.23164 | 6.10727 | 1387 ft | 0 kts | 135° |
| 2026-05-03 23:07 | 46.23156 | 6.10738 | 1388 ft | 1 kts | 135° |
| 2026-05-03 23:08 | 46.23152 | 6.10744 | 1388 ft | 0 kts | 136° |